Time;durP1;ratioP1;P1;durP2;ratioP2;P2;SDS_P1;SDS_P2;PMS_P1;PMS_P2;Temp;Humidity;BMP_temperature;BMP_pressure;BME280_temperature;BME280_humidity;BME280_pressure;Samples;Min_cycle;Max_cycle;Signal;HPM_P1;HPM_P2
2021/05/15 00:00:35;;;;;;;;;;;;;;;21.60;36.92;99198.06;4433405;32;19950;-52
2021/05/15 00:03:01;;;;;;;;;;;;;;;21.58;36.96;99201.63;4419032;32;19954;-53
2021/05/15 00:05:27;;;;;;;;;;;;;;;21.58;36.80;99201.63;4417481;32;20097;-52
2021/05/15 00:07:53;;;;;;;;;;;;;;;21.66;36.67;99204.19;4430471;32;19967;-53
2021/05/15 00:10:19;;;;;;;;;;;;;;;21.59;36.80;99204.25;4432451;32;19942;-52
2021/05/15 00:12:45;;;;;;;;;;;;;;;21.59;36.75;99201.63;4421794;32;19954;-55
2021/05/15 00:15:11;;;;;;;;;;;;;;;21.54;36.81;99206.06;4417309;32;20396;-55
2021/05/15 00:17:37;;;;;;;;;;;;;;;21.52;36.89;99201.72;4428036;32;19967;-50
2021/05/15 00:20:03;;;;;;;;;;;;;;;21.53;36.82;99204.31;4432481;32;19950;-54
2021/05/15 00:22:29;;;;;;;;;;;;;;;21.53;36.84;99200.81;4423629;32;20650;-51
2021/05/15 00:24:55;;;;;;;;;;;;;;;21.53;36.79;99193.72;4417375;32;20017;-52
2021/05/15 00:27:21;;;;;;;;;;;;;;;21.50;36.92;99204.34;4424725;32;20031;-53
2021/05/15 00:29:46;;;;;;;;;;;;;;;21.45;36.83;99195.59;4432708;32;20157;-51
2021/05/15 00:32:12;;;;;;;;;;;;;;;21.43;36.96;99197.41;4425896;32;19942;-51
2021/05/15 00:34:38;;;;;;;;;;;;;;;21.50;36.79;99195.56;4417779;32;19951;-54
2021/05/15 00:37:04;;;;;;;;;;;;;;;21.50;36.85;99196.41;4422000;32;20381;-52
2021/05/15 00:39:30;;;;;;;;;;;;;;;21.46;36.94;99192.06;4432648;32;19965;-52
2021/05/15 00:41:56;;;;;;;;;;;;;;;21.44;36.90;99188.56;4429523;32;19950;-52
2021/05/15 00:46:51;;;;;;;;;;;;;;;21.39;36.92;99179.75;4419885;32;19950;-52
2021/05/15 00:49:17;;;;;;;;;;;;;;;21.38;36.99;99183.31;4428489;32;20016;-53
2021/05/15 00:51:42;;;;;;;;;;;;;;;21.32;37.12;99185.13;4418338;32;19972;-52
2021/05/15 00:54:08;;;;;;;;;;;;;;;21.20;37.21;99180.81;4432535;32;19958;-53
2021/05/15 00:56:34;;;;;;;;;;;;;;;21.19;37.50;99184.38;4433478;32;19949;-52
2021/05/15 00:59:00;;;;;;;;;;;;;;;21.22;37.27;99174.62;4431870;32;20294;-53
2021/05/15 01:01:26;;;;;;;;;;;;;;;21.24;37.20;99186.97;4431607;32;19999;-50
2021/05/15 01:03:52;;;;;;;;;;;;;;;21.19;37.41;99186.16;4419384;32;19958;-52
2021/05/15 01:06:18;;;;;;;;;;;;;;;21.11;37.54;99185.34;4417112;32;19985;-49
2021/05/15 01:08:47;;;;;;;;;;;;;;;21.11;37.42;99182.69;4429181;32;19984;-52
2021/05/15 01:11:13;;;;;;;;;;;;;;;21.11;37.50;99175.63;4432349;32;19950;-51
2021/05/15 01:13:39;;;;;;;;;;;;;;;21.09;37.49;99176.53;4421545;32;19953;-54
2021/05/15 01:16:05;;;;;;;;;;;;;;;21.09;37.50;99181.84;4416366;32;20570;-54
2021/05/15 01:18:30;;;;;;;;;;;;;;;21.06;37.46;99178.34;4426810;32;20492;-52
2021/05/15 01:20:56;;;;;;;;;;;;;;;21.06;37.47;99183.63;4432153;32;20054;-50
2021/05/15 01:23:22;;;;;;;;;;;;;;;21.07;37.28;99184.50;4430455;32;20082;-52
2021/05/15 01:25:48;;;;;;;;;;;;;;;21.08;37.03;99174.78;4432743;32;20050;-50
2021/05/15 01:28:14;;;;;;;;;;;;;;;21.06;37.16;99183.63;4431568;32;20021;-51
2021/05/15 01:30:40;;;;;;;;;;;;;;;21.05;37.03;99181.88;4431951;32;20013;-54
2021/05/15 01:33:06;;;;;;;;;;;;;;;21.05;36.93;99181.88;4431074;32;20005;-53
2021/05/15 01:35:31;;;;;;;;;;;;;;;21.04;37.17;99179.25;4432669;32;20041;-52
2021/05/15 01:37:57;;;;;;;;;;;;;;;21.03;37.15;99180.13;4428192;32;20439;-54
2021/05/15 01:40:23;;;;;;;;;;;;;;;20.99;37.06;99178.37;4416550;32;20061;-53
2021/05/15 01:42:49;;;;;;;;;;;;;;;21.00;37.41;99175.72;4419288;32;19962;-51
2021/05/15 01:45:15;;;;;;;;;;;;;;;21.10;37.22;99178.31;4432032;32;20355;-52
2021/05/15 01:47:41;;;;;;;;;;;;;;;21.06;36.49;99166.84;4430376;32;19991;-52
2021/05/15 01:50:07;;;;;;;;;;;;;;;21.06;36.69;99167.75;4416558;32;19998;-50
2021/05/15 01:52:33;;;;;;;;;;;;;;;21.05;36.52;99173.03;4416884;32;19958;-48
2021/05/15 01:54:59;;;;;;;;;;;;;;;21.05;37.05;99167.75;4431893;32;19950;-52
2021/05/15 01:57:25;;;;;;;;;;;;;;;21.06;36.83;99167.75;4432224;32;19946;-50
2021/05/15 01:59:51;;;;;;;;;;;;;;;21.03;37.27;99157.16;4431427;32;20338;-49
2021/05/15 02:02:16;;;;;;;;;;;;;;;21.03;36.89;99151.88;4431312;32;20001;-52
2021/05/15 02:04:42;;;;;;;;;;;;;;;21.02;37.13;99150.13;4420051;32;19965;-51
2021/05/15 02:07:08;;;;;;;;;;;;;;;21.09;36.79;99144.78;4416466;32;19949;-50
2021/05/15 02:09:34;;;;;;;;;;;;;;;21.06;36.74;99146.56;4427161;32;19984;-50
2021/05/15 02:12:00;;;;;;;;;;;;;;;21.05;36.58;99146.59;4431903;32;19973;-49
2021/05/15 02:14:26;;;;;;;;;;;;;;;20.99;37.17;99144.88;4421284;32;19980;-51
2021/05/15 02:16:52;;;;;;;;;;;;;;;21.05;36.19;99139.53;4416287;32;19972;-52
2021/05/15 02:19:18;;;;;;;;;;;;;;;21.08;36.63;99140.37;4424540;32;19994;-50
2021/05/15 02:21:44;;;;;;;;;;;;;;;21.08;36.51;99138.59;4431839;32;19958;-54
2021/05/15 02:24:10;;;;;;;;;;;;;;;21.03;36.77;99141.28;4425009;32;20010;-52
2021/05/15 02:26:37;;;;;;;;;;;;;;;21.03;36.45;99135.13;4432103;32;20036;-53
2021/05/15 02:29:03;;;;;;;;;;;;;;;21.02;36.55;99138.69;4425141;32;19966;-52
2021/05/15 02:31:28;;;;;;;;;;;;;;;21.03;36.35;99136.00;4416677;32;20862;-51
2021/05/15 02:33:54;;;;;;;;;;;;;;;21.05;36.59;99134.25;4423910;32;19962;-49
2021/05/15 02:36:20;;;;;;;;;;;;;;;21.03;36.30;99141.28;4434220;32;20012;-51
2021/05/15 02:38:46;;;;;;;;;;;;;;;21.04;36.80;99143.03;4431599;32;19990;-51
2021/05/15 02:41:12;;;;;;;;;;;;;;;21.04;36.75;99132.44;4419399;32;19965;-53
2021/05/15 02:43:38;;;;;;;;;;;;;;;21.06;36.25;99130.69;4420755;32;19964;-53
2021/05/15 02:46:04;;;;;;;;;;;;;;;21.06;36.17;99133.34;4432886;32;20323;-53
2021/05/15 02:48:30;;;;;;;;;;;;;;;21.11;36.22;99132.41;4420830;32;19954;-50
2021/05/15 02:50:55;;;;;;;;;;;;;;;21.06;36.51;99133.34;4418908;32;19961;-50
2021/05/15 02:53:21;;;;;;;;;;;;;;;21.04;36.31;99131.59;4418338;32;19988;-52
2021/05/15 02:55:47;;;;;;;;;;;;;;;21.11;36.27;99129.75;4432747;32;19962;-51
2021/05/15 02:58:16;;;;;;;;;;;;;;;21.03;36.89;99125.41;4433871;32;19953;-50
2021/05/15 03:00:42;;;;;;;;;;;;;;;21.04;36.69;99127.16;4433727;32;19962;-53
2021/05/15 03:03:09;;;;;;;;;;;;;;;21.06;36.39;99132.44;4433612;32;20028;-52
2021/05/15 03:05:35;;;;;;;;;;;;;;;21.05;36.08;99123.66;4434875;32;19961;-50
2021/05/15 03:08:01;;;;;;;;;;;;;;;21.06;36.32;99120.09;4434525;32;19957;-52
2021/05/15 03:10:27;;;;;;;;;;;;;;;21.02;36.28;99117.50;4422958;32;19950;-49
2021/05/15 03:12:53;;;;;;;;;;;;;;;21.03;36.33;99120.12;4418698;32;19958;-52
2021/05/15 03:15:18;;;;;;;;;;;;;;;21.08;36.06;99119.22;4427567;32;19960;-53
2021/05/15 03:17:44;;;;;;;;;;;;;;;21.06;36.41;99113.91;4433878;32;20286;-54
2021/05/15 03:20:10;;;;;;;;;;;;;;;21.03;36.32;99109.53;4425528;32;19962;-54
2021/05/15 03:22:36;;;;;;;;;;;;;;;21.04;36.42;99119.22;4418831;32;19968;-51
2021/05/15 03:25:02;;;;;;;;;;;;;;;21.09;36.48;99118.31;4425474;32;20005;-55
2021/05/15 03:27:28;;;;;;;;;;;;;;;21.06;36.44;99114.81;4433557;32;20001;-52
2021/05/15 03:29:54;;;;;;;;;;;;;;;21.03;36.59;99104.22;4428974;32;19973;-52
2021/05/15 03:32:20;;;;;;;;;;;;;;;21.05;36.39;99102.47;4418305;32;19962;-52
2021/05/15 03:34:46;;;;;;;;;;;;;;;21.00;36.42;99104.28;4422128;32;19954;-53
2021/05/15 03:37:12;;;;;;;;;;;;;;;20.99;36.36;99102.53;4419548;32;19962;-49
2021/05/15 03:39:38;;;;;;;;;;;;;;;21.06;36.41;99098.03;4431555;32;19965;-52
2021/05/15 03:42:04;;;;;;;;;;;;;;;21.04;36.53;99099.84;4418395;32;19970;-51
2021/05/15 03:44:29;;;;;;;;;;;;;;;21.02;36.61;99102.47;4418329;32;20393;-51
2021/05/15 03:46:55;;;;;;;;;;;;;;;21.04;36.46;99110.41;4432514;32;19982;-52
2021/05/15 03:49:21;;;;;;;;;;;;;;;21.01;36.41;99106.03;4432030;32;19949;-50
2021/05/15 03:51:47;;;;;;;;;;;;;;;21.00;36.50;99112.22;4419163;32;20270;-52
2021/05/15 03:54:13;;;;;;;;;;;;;;;21.02;36.45;99113.06;4417474;32;20010;-52
2021/05/15 03:56:39;;;;;;;;;;;;;;;20.99;36.64;99113.09;4431141;32;19954;-50
2021/05/15 03:59:05;;;;;;;;;;;;;;;21.01;36.61;99111.31;4433007;32;19961;-52
2021/05/15 04:01:31;;;;;;;;;;;;;;;20.98;36.67;99111.34;4421107;32;19958;-52
2021/05/15 04:03:57;;;;;;;;;;;;;;;20.95;36.90;99105.22;4418079;32;20290;-48
2021/05/15 04:06:22;;;;;;;;;;;;;;;20.93;36.67;99113.19;4427450;32;20077;-54
2021/05/15 04:08:48;;;;;;;;;;;;;;;20.91;36.77;99107.91;4433167;32;20340;-49
2021/05/15 04:11:14;;;;;;;;;;;;;;;20.95;36.73;99105.22;4423635;32;20013;-52
2021/05/15 04:13:51;;;;;;;;;;;;;;;20.90;36.77;99114.09;4417843;32;19959;-50
2021/05/15 04:18:43;;;;;;;;;;;;;;;20.93;36.72;99110.53;4433160;32;19977;-54
2021/05/15 04:21:09;;;;;;;;;;;;;;;20.89;36.87;99117.63;4425245;32;19961;-53
2021/05/15 04:23:35;;;;;;;;;;;;;;;20.95;36.76;99116.69;4418484;32;19969;-48
2021/05/15 04:26:01;;;;;;;;;;;;;;;20.92;37.35;99117.59;4424426;32;19954;-52
2021/05/15 04:28:27;;;;;;;;;;;;;;;20.91;36.61;99114.94;4432762;32;19958;-52
2021/05/15 04:30:52;;;;;;;;;;;;;;;20.91;36.70;99117.59;4428639;32;19961;-51
2021/05/15 04:33:23;;;;;;;;;;;;;;;20.87;36.85;99119.41;4417309;32;19974;-53
2021/05/15 04:35:48;;;;;;;;;;;;;;;20.88;36.97;99114.97;4421356;32;20361;-52
2021/05/15 04:38:16;;;;;;;;;;;;;;;20.90;36.70;99119.38;4432150;32;19950;-49
2021/05/15 04:40:42;;;;;;;;;;;;;;;20.91;36.88;99114.94;4429775;32;19955;-52
2021/05/15 04:43:08;;;;;;;;;;;;;;;20.91;36.88;99120.25;4416815;32;20558;-52
2021/05/15 04:45:34;;;;;;;;;;;;;;;20.95;36.72;99116.69;4419079;32;19938;-53
2021/05/15 04:47:59;;;;;;;;;;;;;;;20.92;36.73;99111.41;4431734;32;19951;-52
2021/05/15 04:50:25;;;;;;;;;;;;;;;20.93;36.82;99107.91;4432234;32;19990;-50
2021/05/15 04:52:51;;;;;;;;;;;;;;;20.89;37.05;99111.44;4417836;32;19986;-51
2021/05/15 04:55:17;;;;;;;;;;;;;;;20.93;36.75;99110.53;4417355;32;19969;-52
2021/05/15 04:57:43;;;;;;;;;;;;;;;20.96;36.72;99107.84;4431062;32;19983;-51
2021/05/15 05:00:09;;;;;;;;;;;;;;;20.98;36.80;99106.06;4431749;32;19964;-49
2021/05/15 05:02:35;;;;;;;;;;;;;;;20.95;37.02;99105.22;4430924;32;19950;-50
2021/05/15 05:05:01;;;;;;;;;;;;;;;20.98;36.75;99111.34;4433177;32;20343;-52
2021/05/15 05:07:26;;;;;;;;;;;;;;;20.99;36.84;99129.00;4431930;32;20009;-52
2021/05/15 05:09:52;;;;;;;;;;;;;;;20.97;36.90;99117.56;4432743;32;20311;-53
2021/05/15 05:12:18;;;;;;;;;;;;;;;20.98;36.88;99124.59;4432473;32;20399;-51
2021/05/15 05:14:44;;;;;;;;;;;;;;;21.03;36.70;99117.47;4432686;32;19934;-54
2021/05/15 05:17:10;;;;;;;;;;;;;;;21.04;36.63;99121.88;4423680;32;19950;-54
2021/05/15 05:19:36;;;;;;;;;;;;;;;21.07;36.74;99126.25;4417440;32;19949;-53
2021/05/15 05:22:03;;;;;;;;;;;;;;;21.09;36.63;99123.59;4423730;32;19954;-51
2021/05/15 05:24:29;;;;;;;;;;;;;;;21.05;36.51;99122.75;4432321;32;19972;-48
2021/05/15 05:26:55;;;;;;;;;;;;;;;21.06;36.63;99124.50;4426720;32;20287;-52
2021/05/15 05:29:21;;;;;;;;;;;;;;;21.13;36.43;99112.09;4416282;32;19949;-53
2021/05/15 05:31:47;;;;;;;;;;;;;;;21.10;36.48;99125.37;4420060;32;20417;-52
2021/05/15 05:34:13;;;;;;;;;;;;;;;21.09;36.58;99118.31;4416632;32;19968;-53
2021/05/15 05:36:39;;;;;;;;;;;;;;;21.10;36.51;99125.37;4419484;32;19974;-54
2021/05/15 05:39:04;;;;;;;;;;;;;;;21.11;36.71;99121.81;4431044;32;19950;-51
2021/05/15 05:41:30;;;;;;;;;;;;;;;21.08;36.91;99125.37;4432218;32;19968;-51
2021/05/15 05:43:56;;;;;;;;;;;;;;;21.06;36.67;99120.09;4432319;32;20092;-52
2021/05/15 05:46:22;;;;;;;;;;;;;;;21.08;36.67;99128.00;4431662;32;20053;-52
2021/05/15 05:48:48;;;;;;;;;;;;;;;21.11;36.61;99127.13;4416965;32;19950;-48
2021/05/15 05:51:14;;;;;;;;;;;;;;;21.11;36.78;99121.81;4416030;32;19954;-52
2021/05/15 05:53:40;;;;;;;;;;;;;;;21.12;36.76;99121.81;4430270;32;19953;-53
2021/05/15 05:56:06;;;;;;;;;;;;;;;21.17;36.61;99117.34;4432009;32;19982;-51
2021/05/15 05:58:31;;;;;;;;;;;;;;;21.18;36.62;99120.88;4419864;32;20412;-52
2021/05/15 06:00:57;;;;;;;;;;;;;;;21.17;36.59;99121.72;4415956;32;19985;-53
2021/05/15 06:03:23;;;;;;;;;;;;;;;21.16;36.61;99115.59;4427177;32;20349;-54
2021/05/15 06:05:49;;;;;;;;;;;;;;;21.18;36.65;99123.53;4432778;32;19995;-51
2021/05/15 06:08:15;;;;;;;;;;;;;;;21.17;36.64;99119.09;4425198;32;19961;-50
2021/05/15 06:10:41;;;;;;;;;;;;;;;21.18;36.64;99124.37;4419592;32;19984;-54
2021/05/15 06:13:07;;;;;;;;;;;;;;;21.18;36.71;99118.22;4427039;32;19986;-52
2021/05/15 06:15:33;;;;;;;;;;;;;;;21.17;36.72;99116.44;4434246;32;20291;-54
2021/05/15 06:17:59;;;;;;;;;;;;;;;21.18;36.77;99118.22;4427803;32;19958;-51
2021/05/15 06:20:24;;;;;;;;;;;;;;;21.13;37.14;99112.09;4418850;32;19988;-53
2021/05/15 06:22:51;;;;;;;;;;;;;;;21.11;37.25;99120.03;4424902;32;19953;-53
2021/05/15 06:25:16;;;;;;;;;;;;;;;21.09;37.24;99113.03;4435074;32;19981;-53
2021/05/15 06:27:42;;;;;;;;;;;;;;;21.09;37.34;99113.88;4430382;32;19987;-52
2021/05/15 06:30:08;;;;;;;;;;;;;;;21.09;37.27;99113.03;4425425;32;19969;-52
2021/05/15 06:32:34;;;;;;;;;;;;;;;21.09;37.48;99107.72;4426300;32;19975;-50
2021/05/15 06:35:00;;;;;;;;;;;;;;;21.08;37.46;99105.97;4430547;32;19954;-49
2021/05/15 06:37:26;;;;;;;;;;;;;;;21.07;37.57;99102.44;4428786;32;19957;-51
2021/05/15 06:39:52;;;;;;;;;;;;;;;21.06;37.54;99105.97;4427296;32;19946;-52
2021/05/15 06:42:18;;;;;;;;;;;;;;;21.09;37.54;99103.28;4426551;32;19942;-50
2021/05/15 06:44:44;;;;;;;;;;;;;;;21.10;37.55;99099.75;4426725;32;19958;-53
2021/05/15 06:47:12;;;;;;;;;;;;;;;21.09;37.59;99100.66;4426723;32;20345;-52
2021/05/15 06:49:38;;;;;;;;;;;;;;;21.10;37.65;99109.47;4430314;32;20327;-51
2021/05/15 06:52:04;;;;;;;;;;;;;;;21.04;37.86;99100.69;4434648;32;19973;-52
2021/05/15 06:54:29;;;;;;;;;;;;;;;21.05;37.86;99115.72;4422902;32;20400;-54
2021/05/15 06:56:55;;;;;;;;;;;;;;;21.02;37.96;99113.06;4420613;32;19974;-53
2021/05/15 06:59:21;;;;;;;;;;;;;;;21.04;37.90;99111.28;4430436;32;19954;-55
2021/05/15 07:01:47;;;;;;;;;;;;;;;21.04;38.00;99116.56;4434225;32;20027;-51
2021/05/15 07:04:13;;;;;;;;;;;;;;;21.08;37.94;99119.22;4429280;32;19957;-54
2021/05/15 07:06:39;;;;;;;;;;;;;;;21.03;38.02;99111.31;4435625;32;19959;-55
2021/05/15 07:09:05;;;;;;;;;;;;;;;21.04;38.00;99111.28;4430492;32;19963;-54
2021/05/15 07:11:31;;;;;;;;;;;;;;;21.07;38.00;99115.66;4434635;32;19991;-55
2021/05/15 07:13:57;;;;;;;;;;;;;;;21.09;37.97;99113.03;4429631;32;19985;-54
2021/05/15 07:16:22;;;;;;;;;;;;;;;21.06;37.99;99109.53;4425290;32;20038;-51
2021/05/15 07:18:48;;;;;;;;;;;;;;;21.11;37.93;99112.09;4427439;32;19950;-55
2021/05/15 07:21:14;;;;;;;;;;;;;;;21.08;38.01;99105.97;4426490;32;19965;-53
2021/05/15 07:23:40;;;;;;;;;;;;;;;21.10;37.97;99104.19;4428031;32;19953;-54
2021/05/15 07:26:08;;;;;;;;;;;;;;;21.10;37.97;99104.19;4425749;32;19950;-52
2021/05/15 07:28:33;;;;;;;;;;;;;;;21.11;37.98;99103.28;4426483;32;19968;-56
2021/05/15 07:30:59;;;;;;;;;;;;;;;21.14;37.94;99111.19;4427181;32;19938;-55
2021/05/15 07:33:25;;;;;;;;;;;;;;;21.15;37.94;99107.66;4426306;32;19938;-55
2021/05/15 07:35:51;;;;;;;;;;;;;;;21.16;37.91;99107.63;4426772;32;19991;-55
2021/05/15 07:38:18;;;;;;;;;;;;;;;21.19;37.87;99104.94;4426196;32;20330;-56
2021/05/15 07:40:44;;;;;;;;;;;;;;;21.25;37.81;99097.84;4428802;32;19956;-55
2021/05/15 07:43:10;;;;;;;;;;;;;;;21.24;37.81;99104.91;4434208;32;19993;-55
2021/05/15 07:45:36;;;;;;;;;;;;;;;21.26;37.78;99096.94;4425912;32;19954;-56
2021/05/15 07:48:02;;;;;;;;;;;;;;;21.31;37.70;99103.06;4424226;32;19965;-52
2021/05/15 07:50:28;;;;;;;;;;;;;;;21.31;37.71;99093.34;4425945;32;19950;-53
2021/05/15 07:52:54;;;;;;;;;;;;;;;21.34;37.64;99093.31;4426665;32;19965;-53
2021/05/15 07:55:20;;;;;;;;;;;;;;;21.36;37.65;99093.31;4425725;32;19954;-53
2021/05/15 07:57:46;;;;;;;;;;;;;;;21.42;37.49;99085.28;4425370;32;20566;-56
2021/05/15 08:00:14;;;;;;;;;;;;;;;21.43;37.54;99091.47;4426896;32;19951;-56
2021/05/15 08:02:40;;;;;;;;;;;;;;;21.43;37.53;99087.03;4425031;32;19964;-55
2021/05/15 08:05:06;;;;;;;;;;;;;;;21.47;37.48;99087.88;4423143;32;19954;-54
2021/05/15 08:07:32;;;;;;;;;;;;;;;21.52;37.39;99080.72;4419229;32;19962;-56
2021/05/15 08:09:58;;;;;;;;;;;;;;;21.52;37.41;99086.03;4427224;32;19948;-54
2021/05/15 08:12:24;;;;;;;;;;;;;;;21.49;37.42;99080.78;4431380;32;20396;-53
2021/05/15 08:14:50;;;;;;;;;;;;;;;21.53;37.44;99082.47;4430050;32;19957;-53
2021/05/15 08:17:16;;;;;;;;;;;;;;;21.55;37.41;99079.81;4429153;32;19958;-50
2021/05/15 08:19:41;;;;;;;;;;;;;;;21.55;37.39;99085.13;4423408;32;19949;-55
2021/05/15 08:22:07;;;;;;;;;;;;;;;21.57;37.39;99083.31;4432693;32;19941;-50
2021/05/15 08:24:33;;;;;;;;;;;;;;;21.60;37.32;99088.56;4430272;32;19962;-53
2021/05/15 08:26:59;;;;;;;;;;;;;;;21.68;37.18;99081.44;4428825;32;19954;-56
2021/05/15 08:29:28;;;;;;;;;;;;;;;21.62;37.15;99082.34;4426063;32;19946;-57
2021/05/15 08:31:54;;;;;;;;;;;;;;;20.87;37.41;99081.47;4431801;32;19958;-56
2021/05/15 08:34:20;;;;;;;;;;;;;;;20.50;37.75;99077.41;4428493;32;20014;-57
2021/05/15 08:36:47;;;;;;;;;;;;;;;20.27;37.53;99080.22;4422771;32;19970;-58
2021/05/15 08:39:13;;;;;;;;;;;;;;;19.76;38.39;99078.75;4406266;32;19946;-56
2021/05/15 08:41:38;;;;;;;;;;;;;;;19.60;38.90;99073.56;4407663;32;20001;-56
2021/05/15 08:44:06;;;;;;;;;;;;;;;19.45;39.42;99074.50;4408339;32;20049;-52
2021/05/15 08:46:31;;;;;;;;;;;;;;;19.58;39.49;99070.06;4418071;32;19962;-56
2021/05/15 08:48:57;;;;;;;;;;;;;;;20.18;38.44;99060.88;4416119;32;19993;-52
2021/05/15 08:51:23;;;;;;;;;;;;;;;20.54;37.59;99067.66;4425851;32;19976;-52
2021/05/15 08:53:49;;;;;;;;;;;;;;;20.60;37.65;99067.59;4419874;32;20383;-52
2021/05/15 08:56:15;;;;;;;;;;;;;;;20.87;37.24;99065.59;4420112;32;19993;-53
2021/05/15 08:58:41;;;;;;;;;;;;;;;20.89;37.20;99061.16;4416909;32;19980;-50
2021/05/15 09:01:07;;;;;;;;;;;;;;;21.01;37.04;99063.69;4419607;32;20546;-53
2021/05/15 09:03:33;;;;;;;;;;;;;;;21.06;36.92;99056.59;4423250;32;19994;-55
2021/05/15 09:05:59;;;;;;;;;;;;;;;21.02;37.05;99057.50;4410509;32;20000;-54
2021/05/15 09:08:25;;;;;;;;;;;;;;;21.11;36.95;99059.16;4419591;32;19973;-57
2021/05/15 09:10:51;;;;;;;;;;;;;;;20.76;37.18;99058.63;4422925;32;19957;-56
2021/05/15 09:13:18;;;;;;;;;;;;;;;19.29;39.75;99057.84;4422247;32;19985;-56
2021/05/15 09:15:44;;;;;;;;;;;;;;;18.97;40.54;99061.47;4419895;32;19958;-56
2021/05/15 09:18:10;;;;;;;;;;;;;;;18.80;40.92;99061.50;4419499;32;19961;-55
2021/05/15 09:20:39;;;;;;;;;;;;;;;18.77;41.29;99067.66;4423031;32;19997;-57
2021/05/15 09:23:05;;;;;;;;;;;;;;;18.51;42.07;99065.03;4419164;32;20622;-55
2021/05/15 09:25:31;;;;;;;;;;;;;;;18.50;42.16;99066.81;4422534;32;19965;-59
2021/05/15 09:27:57;;;;;;;;;;;;;;;18.70;41.91;99055.34;4428295;32;20022;-54
2021/05/15 09:30:23;;;;;;;;;;;;;;;18.39;42.56;99052.75;4423180;32;20041;-54
2021/05/15 09:32:49;;;;;;;;;;;;;;;18.52;42.60;99049.25;4421344;32;20556;-55
2021/05/15 09:35:14;;;;;;;;;;;;;;;18.51;42.74;99051.88;4425526;32;20004;-54
2021/05/15 09:37:41;;;;;;;;;;;;;;;18.10;43.69;99051.88;4424952;32;19966;-49
2021/05/15 09:40:08;;;;;;;;;;;;;;;18.01;43.57;99041.28;4417472;32;20380;-51
2021/05/15 09:42:33;;;;;;;;;;;;;;;18.70;42.30;99041.31;4424213;32;19954;-52
2021/05/15 09:44:59;;;;;;;;;;;;;;;18.26;43.67;99042.22;4424520;32;20005;-53
2021/05/15 09:47:25;;;;;;;;;;;;;;;17.68;44.58;99041.25;4420802;32;19961;-50
2021/05/15 09:49:53;;;;;;;;;;;;;;;17.39;45.73;99043.78;4422749;32;19947;-52
2021/05/15 09:52:19;;;;;;;;;;;;;;;16.90;48.25;99047.06;4425271;32;19982;-49
2021/05/15 09:54:45;;;;;;;;;;;;;;;16.83;47.63;99046.16;4422434;32;19995;-50
2021/05/15 09:57:11;;;;;;;;;;;;;;;17.10;46.98;99050.72;4418489;32;20243;-51
2021/05/15 09:59:37;;;;;;;;;;;;;;;16.90;46.82;99040.03;4419727;32;20002;-54
2021/05/15 10:02:03;;;;;;;;;;;;;;;16.80;48.26;99044.38;4420499;32;20004;-51
2021/05/15 10:04:29;;;;;;;;;;;;;;;16.69;49.20;99046.06;4420043;32;19942;-54
2021/05/15 10:06:56;;;;;;;;;;;;;;;16.63;50.26;99043.41;4422538;32;19960;-53
2021/05/15 10:09:22;;;;;;;;;;;;;;;16.79;49.98;99039.97;4420691;32;20071;-54
2021/05/15 10:11:48;;;;;;;;;;;;;;;17.19;49.02;99043.72;4420388;32;19958;-52
2021/05/15 10:14:14;;;;;;;;;;;;;;;17.30;49.38;99042.00;4417117;32;19942;-54
2021/05/15 10:16:40;;;;;;;;;;;;;;;17.27;49.64;99036.75;4423668;32;20350;-55
2021/05/15 10:19:06;;;;;;;;;;;;;;;17.21;49.96;99041.97;4423634;32;20033;-51
2021/05/15 10:21:32;;;;;;;;;;;;;;;17.26;49.39;99035.84;4417259;32;19965;-54
2021/05/15 10:23:58;;;;;;;;;;;;;;;17.21;50.22;99031.44;4418669;32;20002;-52
2021/05/15 10:26:24;;;;;;;;;;;;;;;17.14;50.66;99031.44;4421684;32;19999;-52
2021/05/15 10:28:50;;;;;;;;;;;;;;;17.22;51.19;99038.47;4418295;32;19958;-52
2021/05/15 10:31:16;;;;;;;;;;;;;;;16.98;50.76;99040.97;4418819;32;19966;-54
2021/05/15 10:33:42;;;;;;;;;;;;;;;16.79;50.90;99034.72;4414780;32;19989;-53
2021/05/15 10:36:09;;;;;;;;;;;;;;;16.85;51.03;99034.78;4423555;32;19961;-49
2021/05/15 10:38:35;;;;;;;;;;;;;;;16.98;51.17;99034.84;4418198;32;19954;-48
2021/05/15 10:41:01;;;;;;;;;;;;;;;17.31;49.96;99017.44;4421270;32;19998;-53
2021/05/15 10:43:26;;;;;;;;;;;;;;;17.52;50.44;99002.59;4422286;32;20311;-53
2021/05/15 10:45:52;;;;;;;;;;;;;;;17.72;49.34;98992.09;4423297;32;19958;-53
2021/05/15 10:48:24;;;;;;;;;;;;;;;17.53;49.87;98991.19;4421201;32;19954;-53
2021/05/15 10:50:50;;;;;;;;;;;;;;;17.92;48.48;98984.22;4420726;32;19960;-55
2021/05/15 10:53:16;;;;;;;;;;;;;;;18.10;48.13;98977.25;4420458;32;19950;-53
2021/05/15 10:55:42;;;;;;;;;;;;;;;18.05;48.33;98979.00;4420911;32;20035;-53
2021/05/15 10:58:08;;;;;;;;;;;;;;;18.01;48.20;98979.84;4423859;32;20356;-53
2021/05/15 11:00:34;;;;;;;;;;;;;;;18.40;47.79;98970.19;4419301;32;19993;-53
2021/05/15 11:03:00;;;;;;;;;;;;;;;18.04;48.41;98970.22;4422595;32;19961;-55
2021/05/15 11:05:26;;;;;;;;;;;;;;;18.35;46.77;98970.19;4427256;32;19991;-52
2021/05/15 11:07:51;;;;;;;;;;;;;;;18.70;45.83;98963.06;4421733;32;19950;-50
2021/05/15 11:10:17;;;;;;;;;;;;;;;18.95;45.22;98957.69;4423251;32;19953;-55
2021/05/15 11:12:43;;;;;;;;;;;;;;;18.48;45.84;98955.22;4426202;32;20406;-53
2021/05/15 11:15:09;;;;;;;;;;;;;;;18.30;46.09;98952.62;4421024;32;19960;-54
2021/05/15 11:17:35;;;;;;;;;;;;;;;18.92;45.08;98955.97;4426551;32;19968;-55
2021/05/15 11:20:01;;;;;;;;;;;;;;;19.43;43.85;98953.97;4418111;32;19974;-56
2021/05/15 11:22:27;;;;;;;;;;;;;;;19.71;43.16;98946.72;4423232;32;19961;-55
2021/05/15 11:24:53;;;;;;;;;;;;;;;19.90;42.77;98954.53;4424784;32;20386;-56
2021/05/15 11:27:19;;;;;;;;;;;;;;;19.99;42.60;98953.59;4424087;32;19958;-55
2021/05/15 11:29:45;;;;;;;;;;;;;;;20.11;42.28;98932.34;4423224;32;20673;-55
2021/05/15 11:32:11;;;;;;;;;;;;;;;20.27;41.92;98937.47;4421867;32;20334;-54
2021/05/15 11:34:37;;;;;;;;;;;;;;;20.39;41.64;98933.84;4425187;32;20002;-51
2021/05/15 11:37:03;;;;;;;;;;;;;;;20.49;41.40;98933.72;4422496;32;20264;-56
2021/05/15 11:39:29;;;;;;;;;;;;;;;20.59;41.17;98931.81;4423730;32;19968;-53
2021/05/15 11:41:55;;;;;;;;;;;;;;;20.66;41.05;98929.13;4427268;32;20263;-55
2021/05/15 11:44:21;;;;;;;;;;;;;;;20.73;40.89;98923.75;4408718;32;19950;-54
2021/05/15 11:46:47;;;;;;;;;;;;;;;20.76;40.77;98912.25;4415703;32;20011;-52
2021/05/15 11:49:13;;;;;;;;;;;;;;;20.79;40.75;98913.06;4417047;32;19970;-56
2021/05/15 11:51:38;;;;;;;;;;;;;;;20.85;40.69;98911.28;4409520;32;19958;-52
2021/05/15 11:54:04;;;;;;;;;;;;;;;20.96;40.41;98896.16;4394217;32;19973;-54
2021/05/15 11:56:30;;;;;;;;;;;;;;;21.03;40.29;98892.50;4410229;32;20446;-52
2021/05/15 11:58:56;;;;;;;;;;;;;;;21.09;40.16;98883.59;4403806;32;19972;-55
2021/05/15 12:01:22;;;;;;;;;;;;;;;21.11;40.12;98884.44;4416157;32;19985;-55
2021/05/15 12:03:48;;;;;;;;;;;;;;;21.09;40.15;98885.38;4416094;32;19942;-52
2021/05/15 12:06:15;;;;;;;;;;;;;;;21.13;40.09;98877.38;4420233;32;19985;-54
2021/05/15 12:08:41;;;;;;;;;;;;;;;21.17;39.98;98868.50;4415531;32;19972;-55
2021/05/15 12:11:07;;;;;;;;;;;;;;;21.18;39.97;98861.44;4411697;32;20007;-58
2021/05/15 12:13:33;;;;;;;;;;;;;;;21.19;39.96;98865.84;4416459;32;19969;-61
2021/05/15 12:15:59;;;;;;;;;;;;;;;20.09;38.81;98862.78;4416476;32;19951;-54
2021/05/15 12:18:26;;;;;;;;;;;;;;;19.73;40.50;98862.22;4408362;32;20424;-53
2021/05/15 12:20:52;;;;;;;;;;;;;;;19.46;40.45;98861.56;4400835;32;20685;-54
2021/05/15 12:23:18;;;;;;;;;;;;;;;19.16;41.64;98852.97;4412986;32;20084;-53
2021/05/15 12:25:44;;;;;;;;;;;;;;;18.68;43.09;98857.59;4410933;32;20318;-55
2021/05/15 12:28:09;;;;;;;;;;;;;;;18.45;43.71;98854.19;4410016;32;19978;-55
2021/05/15 12:30:35;;;;;;;;;;;;;;;18.27;44.74;98850.72;4412708;32;20331;-50
2021/05/15 12:33:01;;;;;;;;;;;;;;;18.14;45.01;98844.63;4414962;32;19962;-53
2021/05/15 12:35:27;;;;;;;;;;;;;;;18.55;44.22;98845.38;4416190;32;20418;-53
2021/05/15 12:37:53;;;;;;;;;;;;;;;18.25;43.87;98834.94;4412357;32;19966;-54
2021/05/15 12:40:19;;;;;;;;;;;;;;;18.33;44.38;98831.38;4409184;32;20031;-51
2021/05/15 12:42:45;;;;;;;;;;;;;;;19.08;43.04;98838.06;4407538;32;19962;-52
2021/05/15 12:45:11;;;;;;;;;;;;;;;19.61;41.94;98832.38;4407753;32;19951;-53